sensor_id;sensor_type;location;lat;lon;timestamp;pressure;altitude;pressure_sealevel;temperature;humidity
17072;BME280;7731;50.720;6.912;2023-04-15T00:01:26;99199.09;;;5.11;100.00
17072;BME280;7731;50.720;6.912;2023-04-15T00:03:58;99200.88;;;5.09;100.00
17072;BME280;7731;50.720;6.912;2023-04-15T00:06:29;99200.78;;;4.92;100.00
17072;BME280;7731;50.720;6.912;2023-04-15T00:08:59;99194.00;;;4.70;100.00
17072;BME280;7731;50.720;6.912;2023-04-15T00:11:32;99201.28;;;4.79;100.00
17072;BME280;7731;50.720;6.912;2023-04-15T00:14:02;99205.84;;;4.92;100.00
17072;BME280;7731;50.720;6.912;2023-04-15T00:16:33;99203.88;;;4.78;100.00
17072;BME280;7731;50.720;6.912;2023-04-15T00:19:04;99200.16;;;4.64;100.00
17072;BME280;7731;50.720;6.912;2023-04-15T00:21:34;99203.03;;;4.57;100.00
17072;BME280;7731;50.720;6.912;2023-04-15T00:24:05;99197.59;;;4.22;100.00
17072;BME280;7731;50.720;6.912;2023-04-15T00:26:37;99200.31;;;4.17;100.00
17072;BME280;7731;50.720;6.912;2023-04-15T00:29:09;99196.16;;;4.15;100.00
17072;BME280;7731;50.720;6.912;2023-04-15T00:31:43;99203.03;;;4.13;100.00
17072;BME280;7731;50.720;6.912;2023-04-15T00:34:13;99197.72;;;4.19;100.00
17072;BME280;7731;50.720;6.912;2023-04-15T00:36:43;99201.75;;;4.24;100.00
17072;BME280;7731;50.720;6.912;2023-04-15T00:39:14;99198.91;;;4.32;100.00
17072;BME280;7731;50.720;6.912;2023-04-15T00:41:48;99200.97;;;4.44;100.00
17072;BME280;7731;50.720;6.912;2023-04-15T00:44:18;99197.66;;;4.42;100.00
17072;BME280;7731;50.720;6.912;2023-04-15T00:46:50;99195.78;;;4.68;100.00
17072;BME280;7731;50.720;6.912;2023-04-15T00:49:21;99202.91;;;4.60;100.00
17072;BME280;7731;50.720;6.912;2023-04-15T00:51:51;99190.50;;;4.30;100.00
17072;BME280;7731;50.720;6.912;2023-04-15T00:54:22;99202.19;;;4.34;100.00
17072;BME280;7731;50.720;6.912;2023-04-15T00:56:57;99205.47;;;4.38;100.00
17072;BME280;7731;50.720;6.912;2023-04-15T00:59:29;99206.47;;;5.17;100.00
17072;BME280;7731;50.720;6.912;2023-04-15T01:02:01;99204.44;;;5.05;100.00
17072;BME280;7731;50.720;6.912;2023-04-15T01:04:33;99203.97;;;4.32;100.00
17072;BME280;7731;50.720;6.912;2023-04-15T01:07:07;99206.09;;;4.21;100.00
17072;BME280;7731;50.720;6.912;2023-04-15T01:09:37;99206.19;;;4.62;100.00
17072;BME280;7731;50.720;6.912;2023-04-15T01:12:13;99200.56;;;4.33;100.00
17072;BME280;7731;50.720;6.912;2023-04-15T01:14:44;99200.97;;;4.44;100.00
17072;BME280;7731;50.720;6.912;2023-04-15T01:17:14;99194.81;;;4.28;100.00
17072;BME280;7731;50.720;6.912;2023-04-15T01:19:45;99199.34;;;3.98;100.00
17072;BME280;7731;50.720;6.912;2023-04-15T01:22:16;99197.94;;;3.90;100.00
17072;BME280;7731;50.720;6.912;2023-04-15T01:24:54;99196.09;;;3.94;100.00
17072;BME280;7731;50.720;6.912;2023-04-15T01:27:29;99195.22;;;3.71;100.00
17072;BME280;7731;50.720;6.912;2023-04-15T01:29:59;99190.47;;;3.86;100.00
17072;BME280;7731;50.720;6.912;2023-04-15T01:32:33;99197.19;;;3.87;100.00
17072;BME280;7731;50.720;6.912;2023-04-15T01:35:05;99191.66;;;3.99;100.00
17072;BME280;7731;50.720;6.912;2023-04-15T01:37:36;99192.97;;;4.09;100.00
17072;BME280;7731;50.720;6.912;2023-04-15T01:40:08;99192.56;;;3.98;100.00
17072;BME280;7731;50.720;6.912;2023-04-15T01:42:42;99186.22;;;4.08;100.00
17072;BME280;7731;50.720;6.912;2023-04-15T01:45:12;99189.28;;;3.94;100.00
17072;BME280;7731;50.720;6.912;2023-04-15T01:47:48;99190.59;;;3.83;100.00
17072;BME280;7731;50.720;6.912;2023-04-15T01:50:18;99193.25;;;3.80;100.00
17072;BME280;7731;50.720;6.912;2023-04-15T04:05:28;99239.91;;;3.28;100.00
17072;BME280;7731;50.720;6.912;2023-04-15T04:29:37;99251.16;;;2.41;100.00
17072;BME280;7731;50.720;6.912;2023-04-15T11:20:29;99570.41;;;15.33;47.29
17072;BME280;7731;50.720;6.912;2023-04-15T11:23:01;99575.38;;;15.25;48.04
17072;BME280;7731;50.720;6.912;2023-04-15T11:25:42;99587.72;;;14.76;49.23
17072;BME280;7731;50.720;6.912;2023-04-15T11:28:13;99581.00;;;15.08;48.90
17072;BME280;7731;50.720;6.912;2023-04-15T11:30:43;99584.19;;;15.11;49.08
17072;BME280;7731;50.720;6.912;2023-04-15T12:37:47;99674.88;;;14.63;53.89
17072;BME280;7731;50.720;6.912;2023-04-15T12:45:44;99698.38;;;13.87;57.03
17072;BME280;7731;50.720;6.912;2023-04-15T12:48:15;99697.56;;;13.74;58.63
17072;BME280;7731;50.720;6.912;2023-04-15T12:50:47;99705.25;;;13.63;60.04
17072;BME280;7731;50.720;6.912;2023-04-15T12:53:20;99705.66;;;13.18;61.68
17072;BME280;7731;50.720;6.912;2023-04-15T12:55:50;99718.03;;;12.87;64.22
17072;BME280;7731;50.720;6.912;2023-04-15T12:58:21;99716.97;;;12.37;66.67
17072;BME280;7731;50.720;6.912;2023-04-15T13:00:51;99731.44;;;12.52;66.92
17072;BME280;7731;50.720;6.912;2023-04-15T13:03:21;99731.66;;;12.35;68.46
17072;BME280;7731;50.720;6.912;2023-04-15T13:05:53;99728.91;;;12.10;69.99
17072;BME280;7731;50.720;6.912;2023-04-15T13:08:26;99735.25;;;12.05;70.41
17072;BME280;7731;50.720;6.912;2023-04-15T13:10:57;99741.50;;;12.15;71.29
17072;BME280;7731;50.720;6.912;2023-04-15T13:13:28;99744.34;;;12.10;70.15
17072;BME280;7731;50.720;6.912;2023-04-15T13:15:58;99745.38;;;11.79;72.60
17072;BME280;7731;50.720;6.912;2023-04-15T13:18:28;99754.47;;;11.99;72.56
17072;BME280;7731;50.720;6.912;2023-04-15T13:21:01;99750.16;;;12.00;72.42
17072;BME280;7731;50.720;6.912;2023-04-15T13:23:36;99757.31;;;11.80;73.70
17072;BME280;7731;50.720;6.912;2023-04-15T13:26:06;99755.19;;;11.58;75.52
17072;BME280;7731;50.720;6.912;2023-04-15T13:28:37;99762.09;;;11.57;76.74
17072;BME280;7731;50.720;6.912;2023-04-15T13:31:07;99769.94;;;11.70;77.27
17072;BME280;7731;50.720;6.912;2023-04-15T13:33:38;99765.31;;;11.47;78.96
17072;BME280;7731;50.720;6.912;2023-04-15T13:36:11;99772.38;;;11.86;76.61
17072;BME280;7731;50.720;6.912;2023-04-15T13:38:44;99771.69;;;11.99;77.00
17072;BME280;7731;50.720;6.912;2023-04-15T13:41:18;99782.94;;;11.53;79.01
17072;BME280;7731;50.720;6.912;2023-04-15T13:43:48;99776.44;;;11.76;77.38
17072;BME280;7731;50.720;6.912;2023-04-15T13:46:21;99781.78;;;11.87;76.99
17072;BME280;7731;50.720;6.912;2023-04-15T13:48:53;99788.59;;;11.59;78.20
17072;BME280;7731;50.720;6.912;2023-04-15T13:51:23;99779.69;;;11.94;77.25
17072;BME280;7731;50.720;6.912;2023-04-15T13:53:56;99790.41;;;12.01;76.93
17072;BME280;7731;50.720;6.912;2023-04-15T13:56:26;99795.19;;;12.07;76.81
17072;BME280;7731;50.720;6.912;2023-04-15T13:58:59;99796.88;;;11.93;77.99
17072;BME280;7731;50.720;6.912;2023-04-15T14:01:41;99794.53;;;11.74;78.14
17072;BME280;7731;50.720;6.912;2023-04-15T14:04:15;99808.81;;;11.66;79.14
17072;BME280;7731;50.720;6.912;2023-04-15T14:06:46;99812.72;;;11.57;79.32
17072;BME280;7731;50.720;6.912;2023-04-15T14:09:19;99819.47;;;11.59;79.58
17072;BME280;7731;50.720;6.912;2023-04-15T14:11:53;99820.47;;;11.71;77.31
17072;BME280;7731;50.720;6.912;2023-04-15T14:14:25;99825.69;;;11.70;78.54
17072;BME280;7731;50.720;6.912;2023-04-15T14:16:55;99831.22;;;11.78;78.36
17072;BME280;7731;50.720;6.912;2023-04-15T14:19:26;99829.34;;;11.37;80.38
17072;BME280;7731;50.720;6.912;2023-04-15T14:21:59;99831.38;;;11.46;80.68
17072;BME280;7731;50.720;6.912;2023-04-15T14:24:32;99837.88;;;11.52;80.56
17072;BME280;7731;50.720;6.912;2023-04-15T14:27:02;99848.09;;;11.53;80.63
17072;BME280;7731;50.720;6.912;2023-04-15T14:29:34;99850.09;;;11.34;81.30
17072;BME280;7731;50.720;6.912;2023-04-15T14:32:09;99846.38;;;11.23;83.07
17072;BME280;7731;50.720;6.912;2023-04-15T14:34:43;99846.03;;;11.30;82.87
17072;BME280;7731;50.720;6.912;2023-04-15T14:37:14;99848.69;;;11.28;85.25
17072;BME280;7731;50.720;6.912;2023-04-15T14:39:46;99852.06;;;11.29;82.73
17072;BME280;7731;50.720;6.912;2023-04-15T14:42:17;99856.34;;;11.14;83.60
17072;BME280;7731;50.720;6.912;2023-04-15T14:44:47;99862.50;;;11.11;84.02
17072;BME280;7731;50.720;6.912;2023-04-15T14:47:17;99864.69;;;11.03;84.48
17072;BME280;7731;50.720;6.912;2023-04-15T14:49:48;99865.78;;;11.13;83.67
17072;BME280;7731;50.720;6.912;2023-04-15T14:52:20;99862.09;;;10.87;85.70
17072;BME280;7731;50.720;6.912;2023-04-15T14:54:53;99871.19;;;11.24;84.21
17072;BME280;7731;50.720;6.912;2023-04-15T14:57:23;99878.56;;;11.15;83.31
17072;BME280;7731;50.720;6.912;2023-04-15T14:59:53;99879.06;;;11.21;83.27
17072;BME280;7731;50.720;6.912;2023-04-15T15:02:24;99883.28;;;11.53;82.12
17072;BME280;7731;50.720;6.912;2023-04-15T15:05:08;99881.88;;;11.47;81.60
17072;BME280;7731;50.720;6.912;2023-04-15T15:07:39;99881.56;;;11.07;84.35
17072;BME280;7731;50.720;6.912;2023-04-15T15:10:12;99880.34;;;11.59;82.38
17072;BME280;7731;50.720;6.912;2023-04-15T15:12:58;99881.44;;;11.55;81.71
17072;BME280;7731;50.720;6.912;2023-04-15T15:15:29;99884.69;;;11.58;80.77
17072;BME280;7731;50.720;6.912;2023-04-15T15:18:00;99879.47;;;11.30;83.54
17072;BME280;7731;50.720;6.912;2023-04-15T15:20:31;99885.69;;;11.25;83.90
17072;BME280;7731;50.720;6.912;2023-04-15T15:23:02;99890.72;;;10.97;86.02
17072;BME280;7731;50.720;6.912;2023-04-15T15:25:35;99896.81;;;11.10;86.10
17072;BME280;7731;50.720;6.912;2023-04-15T15:28:06;99901.09;;;11.25;85.08
17072;BME280;7731;50.720;6.912;2023-04-15T15:30:37;99898.31;;;11.14;86.15
17072;BME280;7731;50.720;6.912;2023-04-15T15:33:07;99901.47;;;11.03;87.75
17072;BME280;7731;50.720;6.912;2023-04-15T15:35:38;99902.47;;;11.01;89.03
17072;BME280;7731;50.720;6.912;2023-04-15T15:38:16;99915.81;;;11.23;88.05
17072;BME280;7731;50.720;6.912;2023-04-15T15:40:51;99903.66;;;10.95;87.48
17072;BME280;7731;50.720;6.912;2023-04-15T15:43:21;99912.13;;;10.81;89.99
17072;BME280;7731;50.720;6.912;2023-04-15T15:45:54;99910.44;;;10.96;89.70
17072;BME280;7731;50.720;6.912;2023-04-15T15:48:25;99921.41;;;11.00;89.55
17072;BME280;7731;50.720;6.912;2023-04-15T15:50:55;99916.75;;;10.75;93.55
17072;BME280;7731;50.720;6.912;2023-04-15T15:53:25;99929.00;;;10.69;95.92
17072;BME280;7731;50.720;6.912;2023-04-15T15:55:58;99930.94;;;10.66;97.18
17072;BME280;7731;50.720;6.912;2023-04-15T15:58:30;99933.28;;;10.53;98.64
17072;BME280;7731;50.720;6.912;2023-04-15T16:01:00;99932.72;;;10.64;100.00
17072;BME280;7731;50.720;6.912;2023-04-15T16:03:31;99934.50;;;10.46;100.00
17072;BME280;7731;50.720;6.912;2023-04-15T16:06:02;99943.09;;;10.62;100.00
17072;BME280;7731;50.720;6.912;2023-04-15T16:08:33;99941.78;;;10.55;100.00
17072;BME280;7731;50.720;6.912;2023-04-15T16:11:06;99959.38;;;10.45;100.00
17072;BME280;7731;50.720;6.912;2023-04-15T16:13:38;99958.19;;;10.35;100.00
17072;BME280;7731;50.720;6.912;2023-04-15T16:16:09;99960.88;;;10.49;100.00
17072;BME280;7731;50.720;6.912;2023-04-15T16:18:39;99954.22;;;10.63;100.00
17072;BME280;7731;50.720;6.912;2023-04-15T16:21:11;99965.38;;;10.62;100.00
17072;BME280;7731;50.720;6.912;2023-04-15T16:23:42;99966.59;;;10.54;100.00
17072;BME280;7731;50.720;6.912;2023-04-15T16:26:15;99972.22;;;10.28;100.00
17072;BME280;7731;50.720;6.912;2023-04-15T16:28:48;99974.03;;;10.43;100.00
17072;BME280;7731;50.720;6.912;2023-04-15T16:31:20;99978.41;;;10.24;100.00
17072;BME280;7731;50.720;6.912;2023-04-15T16:33:50;99981.28;;;10.35;100.00
17072;BME280;7731;50.720;6.912;2023-04-15T16:36:20;99989.00;;;10.17;100.00
17072;BME280;7731;50.720;6.912;2023-04-15T16:38:50;99989.28;;;10.29;100.00
17072;BME280;7731;50.720;6.912;2023-04-15T16:41:23;99996.63;;;10.19;100.00
17072;BME280;7731;50.720;6.912;2023-04-15T17:59:51;100081.69;;;9.38;100.00
17072;BME280;7731;50.720;6.912;2023-04-15T18:02:22;100081.63;;;9.21;100.00
17072;BME280;7731;50.720;6.912;2023-04-15T18:04:52;100098.31;;;9.10;100.00
17072;BME280;7731;50.720;6.912;2023-04-15T18:07:23;100098.38;;;9.09;100.00
17072;BME280;7731;50.720;6.912;2023-04-15T18:09:53;100098.53;;;9.25;100.00
17072;BME280;7731;50.720;6.912;2023-04-15T18:12:24;100100.97;;;9.28;100.00
17072;BME280;7731;50.720;6.912;2023-04-15T18:14:57;100101.50;;;9.16;100.00
17072;BME280;7731;50.720;6.912;2023-04-15T18:17:30;100109.69;;;9.24;100.00
17072;BME280;7731;50.720;6.912;2023-04-15T18:20:00;100110.38;;;9.27;100.00
17072;BME280;7731;50.720;6.912;2023-04-15T18:22:31;100114.94;;;9.21;100.00
17072;BME280;7731;50.720;6.912;2023-04-15T18:25:01;100115.50;;;9.27;100.00
17072;BME280;7731;50.720;6.912;2023-04-15T18:27:35;100124.66;;;9.33;100.00
17072;BME280;7731;50.720;6.912;2023-04-15T18:30:10;100130.47;;;9.18;100.00
17072;BME280;7731;50.720;6.912;2023-04-15T18:32:43;100131.66;;;8.90;100.00
17072;BME280;7731;50.720;6.912;2023-04-15T18:35:16;100136.38;;;8.99;100.00
17072;BME280;7731;50.720;6.912;2023-04-15T18:37:47;100137.28;;;8.98;100.00
17072;BME280;7731;50.720;6.912;2023-04-15T18:40:17;100140.44;;;9.05;100.00
17072;BME280;7731;50.720;6.912;2023-04-15T18:42:48;100144.44;;;9.10;100.00
17072;BME280;7731;50.720;6.912;2023-04-15T18:45:21;100152.50;;;9.22;100.00
17072;BME280;7731;50.720;6.912;2023-04-15T18:47:51;100157.28;;;8.90;100.00
17072;BME280;7731;50.720;6.912;2023-04-15T18:50:22;100158.50;;;9.02;100.00
17072;BME280;7731;50.720;6.912;2023-04-15T18:52:54;100157.78;;;9.19;100.00
17072;BME280;7731;50.720;6.912;2023-04-15T18:55:25;100172.25;;;8.99;100.00
17072;BME280;7731;50.720;6.912;2023-04-15T21:49:03;100341.78;;;7.72;100.00
17072;BME280;7731;50.720;6.912;2023-04-15T23:34:25;100405.03;;;7.40;100.00
